Time,TemperatureF,DewpointF,PressureIn,WindDirection,WindDirectionDegrees,WindSpeedMPH,WindSpeedGustMPH,Humidity,HourlyPrecipIn,Conditions,Clouds,dailyrainin,SoftwareType,DateUTC
2013-06-23 00:00:00,71.0,63.8,0.00,WNW,285,0.0,0.0,78,0.00,CLR,CLR,0.00,WeatherDisplay:10.37,2013-06-23 04:00:00,
2013-06-23 00:01:00,71.0,63.8,0.00,WSW,244,2.0,2.0,78,0.00,CLR,CLR,0.00,WeatherDisplay:10.37,2013-06-23 04:01:00,
2013-06-23 00:02:00,71.0,63.8,0.00,SSW,193,2.3,2.3,78,0.00,FEW,FEW,0.00,WeatherDisplay:10.37,2013-06-23 04:02:00,
2013-06-23 00:04:00,71.0,63.8,0.00,SSW,210,2.3,2.3,78,0.00,FEW,FEW,0.00,WeatherDisplay:10.37,2013-06-23 04:04:00,
2013-06-23 00:09:00,70.8,63.6,0.00,SW,229,2.3,0.0,78,0.00,FEW,FEW,0.00,WeatherDisplay:10.37,2013-06-23 04:09:00,
2013-06-23 00:14:00,70.8,63.6,0.00,SW,229,0.0,0.0,78,0.00,FEW,FEW,0.00,WeatherDisplay:10.37,2013-06-23 04:14:00,
2013-06-23 00:20:00,70.7,63.5,0.00,WNW,285,1.2,0.0,78,0.00,FEW,FEW,0.00,WeatherDisplay:10.37,2013-06-23 04:20:00,
2013-06-23 00:25:00,70.5,63.3,0.00,West,265,0.0,0.0,78,0.00,FEW,FEW,0.00,WeatherDisplay:10.37,2013-06-23 04:25:00,
2013-06-23 00:30:00,70.5,63.7,0.00,West,265,0.0,0.0,79,0.00,FEW,FEW,0.00,WeatherDisplay:10.37,2013-06-23 04:30:00,
2013-06-23 00:35:00,70.5,63.7,0.00,West,265,0.0,0.0,79,0.00,FEW,FEW,0.00,WeatherDisplay:10.37,2013-06-23 04:35:00,
2013-06-23 00:40:00,70.4,63.6,0.00,SW,215,1.2,1.2,79,0.00,FEW,FEW,0.00,WeatherDisplay:10.37,2013-06-23 04:40:00,
2013-06-23 00:45:00,70.3,63.5,0.00,SE,127,1.0,1.0,79,0.00,FEW,FEW,0.00,WeatherDisplay:10.37,2013-06-23 04:45:00,
2013-06-23 00:50:00,70.1,63.3,0.00,WSW,244,4.6,4.6,79,0.00,FEW,FEW,0.00,WeatherDisplay:10.37,2013-06-23 04:50:00,
2013-06-23 00:55:00,70.1,63.3,0.00,West,278,1.2,1.2,79,0.00,FEW,FEW,0.00,WeatherDisplay:10.37,2013-06-23 04:55:00,
2013-06-23 01:00:00,70.0,63.2,0.00,West,265,1.9,1.9,79,0.00,FEW,FEW,0.00,WeatherDisplay:10.37,2013-06-23 05:00:00,
2013-06-23 01:06:00,69.9,63.4,0.00,West,264,1.9,1.9,80,0.00,OVC,OVC,0.00,WeatherDisplay:10.37,2013-06-23 05:06:00,
2013-06-23 01:11:00,69.9,63.1,0.00,SSE,155,3.5,3.5,79,0.00,OVC,OVC,0.00,WeatherDisplay:10.37,2013-06-23 05:11:00,
2013-06-23 01:16:00,69.9,63.4,0.00,SW,236,3.2,3.2,80,0.00,OVC,OVC,0.00,WeatherDisplay:10.37,2013-06-23 05:16:00,
2013-06-23 01:21:00,69.7,63.3,0.00,SSW,206,3.5,3.5,80,0.00,OVC,OVC,0.00,WeatherDisplay:10.37,2013-06-23 05:21:00,
2013-06-23 01:26:00,69.6,63.2,0.00,WSW,239,0.7,0.7,80,0.00,OVC,OVC,0.00,WeatherDisplay:10.37,2013-06-23 05:26:00,
2013-06-23 01:31:00,69.5,63.1,0.00,SSW,206,2.3,0.0,80,0.00,OVC,OVC,0.00,WeatherDisplay:10.37,2013-06-23 05:31:00,
2013-06-23 01:36:00,69.6,63.2,0.00,SW,220,0.0,0.0,80,0.00,OVC,OVC,0.00,WeatherDisplay:10.37,2013-06-23 05:36:00,
2013-06-23 01:42:00,69.5,63.1,0.00,West,265,2.2,2.2,80,0.00,OVC,OVC,0.00,WeatherDisplay:10.37,2013-06-23 05:42:00,
2013-06-23 01:47:00,69.5,63.1,0.00,WSW,256,1.2,1.2,80,0.00,OVC,OVC,0.00,WeatherDisplay:10.37,2013-06-23 05:47:00,
2013-06-23 01:52:00,69.4,63.0,0.00,WSW,243,3.5,3.5,80,0.00,OVC,OVC,0.00,WeatherDisplay:10.37,2013-06-23 05:52:00,
2013-06-23 01:57:00,69.3,63.2,0.00,WSW,244,3.5,3.5,81,0.00,OVC,OVC,0.00,WeatherDisplay:10.37,2013-06-23 05:57:00,
2013-06-23 02:01:00,69.3,63.2,0.00,SSW,193,3.5,3.5,81,0.00,OVC,OVC,0.00,WeatherDisplay:10.37,2013-06-23 06:01:00,
2013-06-23 02:06:00,69.2,63.1,0.00,SE,137,2.3,0.0,81,0.00,OVC,OVC,0.00,WeatherDisplay:10.37,2013-06-23 06:06:00,
2013-06-23 02:11:00,69.2,63.1,0.00,WSW,258,3.5,3.5,81,0.00,OVC,OVC,0.00,WeatherDisplay:10.37,2013-06-23 06:11:00,
2013-06-23 02:17:00,69.1,63.0,0.00,WSW,244,3.5,3.5,81,0.00,OVC,OVC,0.00,WeatherDisplay:10.37,2013-06-23 06:17:00,
2013-06-23 02:22:00,69.1,63.0,0.00,WNW,289,4.6,4.6,81,0.00,OVC,OVC,0.00,WeatherDisplay:10.37,2013-06-23 06:22:00,
2013-06-23 02:27:00,69.1,63.0,0.00,WSW,241,3.5,3.5,81,0.00,OVC,OVC,0.00,WeatherDisplay:10.37,2013-06-23 06:27:00,
2013-06-23 02:32:00,69.0,62.9,0.00,SW,226,4.6,4.6,81,0.00,OVC,OVC,0.00,WeatherDisplay:10.37,2013-06-23 06:32:00,
2013-06-23 02:37:00,68.8,62.7,0.00,WSW,248,4.8,4.8,81,0.00,OVC,OVC,0.00,WeatherDisplay:10.37,2013-06-23 06:37:00,
2013-06-23 02:42:00,68.9,62.8,0.00,West,267,0.0,0.0,81,0.00,OVC,OVC,0.00,WeatherDisplay:10.37,2013-06-23 06:42:00,
2013-06-23 02:47:00,68.9,62.8,0.00,SW,226,0.0,0.5,81,0.00,OVC,OVC,0.00,WeatherDisplay:10.37,2013-06-23 06:47:00,
2013-06-23 02:52:00,68.8,62.7,0.00,SSW,200,2.3,2.3,81,0.00,OVC,OVC,0.00,WeatherDisplay:10.37,2013-06-23 06:52:00,
2013-06-23 02:57:00,68.7,63.0,0.00,South,191,1.2,0.0,82,0.00,OVC,OVC,0.00,WeatherDisplay:10.37,2013-06-23 06:57:00,
2013-06-23 03:03:00,68.8,63.1,0.00,South,191,1.2,0.0,82,0.00,FEW,FEW,0.00,WeatherDisplay:10.37,2013-06-23 07:03:00,
2013-06-23 03:08:00,68.7,63.0,0.00,South,191,0.0,0.0,82,0.00,FEW,FEW,0.00,WeatherDisplay:10.37,2013-06-23 07:08:00,
2013-06-23 03:13:00,68.6,62.9,0.00,South,171,1.2,1.2,82,0.00,FEW,FEW,0.00,WeatherDisplay:10.37,2013-06-23 07:13:00,
2013-06-23 03:18:00,68.5,62.4,0.00,SW,217,4.6,4.6,81,0.00,FEW,FEW,0.00,WeatherDisplay:10.37,2013-06-23 07:18:00,
2013-06-23 03:23:00,68.5,62.8,0.00,SW,220,2.3,2.3,82,0.00,FEW,FEW,0.00,WeatherDisplay:10.37,2013-06-23 07:23:00,
2013-06-23 03:28:00,68.5,62.4,0.00,South,174,0.0,0.0,81,0.00,FEW,FEW,0.00,WeatherDisplay:10.37,2013-06-23 07:28:00,
2013-06-23 03:33:00,68.5,62.4,0.00,SW,219,0.0,0.0,81,0.00,FEW,FEW,0.00,WeatherDisplay:10.37,2013-06-23 07:33:00,
2013-06-23 03:38:00,68.4,62.3,0.00,SW,219,0.0,0.0,81,0.00,FEW,FEW,0.00,WeatherDisplay:10.37,2013-06-23 07:38:00,
2013-06-23 03:43:00,68.4,62.7,0.00,West,263,3.5,3.5,82,0.00,FEW,FEW,0.00,WeatherDisplay:10.37,2013-06-23 07:43:00,
2013-06-23 03:49:00,68.4,62.7,0.00,West,263,0.0,0.0,82,0.00,FEW,FEW,0.00,WeatherDisplay:10.37,2013-06-23 07:49:00,
2013-06-23 03:54:00,68.3,62.6,0.00,West,263,0.0,0.0,82,0.00,FEW,FEW,0.00,WeatherDisplay:10.37,2013-06-23 07:54:00,
2013-06-23 03:59:00,68.3,62.2,0.00,West,263,0.0,0.0,81,0.00,FEW,FEW,0.00,WeatherDisplay:10.37,2013-06-23 07:59:00,
2013-06-23 04:04:00,68.2,62.5,0.00,West,263,0.0,0.0,82,0.00,CLR,CLR,0.00,WeatherDisplay:10.37,2013-06-23 08:04:00,
2013-06-23 04:09:00,68.2,62.5,0.00,West,263,0.0,0.0,82,0.00,CLR,CLR,0.00,WeatherDisplay:10.37,2013-06-23 08:09:00,
2013-06-23 04:14:00,68.2,62.5,0.00,West,263,0.0,0.0,82,0.00,CLR,CLR,0.00,WeatherDisplay:10.37,2013-06-23 08:14:00,
2013-06-23 04:19:00,68.1,62.4,0.00,West,263,0.0,0.0,82,0.00,CLR,CLR,0.00,WeatherDisplay:10.37,2013-06-23 08:19:00,
2013-06-23 04:24:00,68.0,62.3,0.00,West,263,0.0,0.0,82,0.00,CLR,CLR,0.00,WeatherDisplay:10.37,2013-06-23 08:24:00,
2013-06-23 04:30:00,68.0,62.3,0.00,West,263,0.0,0.0,82,0.00,CLR,CLR,0.00,WeatherDisplay:10.37,2013-06-23 08:30:00,
2013-06-23 04:35:00,67.9,62.2,0.00,West,263,0.0,0.0,82,0.00,CLR,CLR,0.00,WeatherDisplay:10.37,2013-06-23 08:35:00,
2013-06-23 04:40:00,67.8,62.4,0.00,West,263,0.0,0.0,83,0.00,CLR,CLR,0.00,WeatherDisplay:10.37,2013-06-23 08:40:00,
2013-06-23 04:45:00,67.8,62.4,0.00,West,263,0.0,0.0,83,0.00,CLR,CLR,0.00,WeatherDisplay:10.37,2013-06-23 08:45:00,
2013-06-23 04:50:00,67.9,62.5,0.00,West,263,0.0,0.0,83,0.00,CLR,CLR,0.00,WeatherDisplay:10.37,2013-06-23 08:50:00,
2013-06-23 04:55:00,67.7,62.3,0.00,West,263,0.0,0.0,83,0.00,CLR,CLR,0.00,WeatherDisplay:10.37,2013-06-23 08:55:00,
2013-06-23 05:01:00,67.7,62.3,0.00,West,263,0.0,0.0,83,0.00,CLR,CLR,0.00,WeatherDisplay:10.37,2013-06-23 09:01:00,
2013-06-23 05:06:00,67.7,62.3,0.00,West,263,0.0,0.0,83,0.00,SCT,SCT,0.00,WeatherDisplay:10.37,2013-06-23 09:06:00,
2013-06-23 05:11:00,67.5,62.5,0.00,West,263,0.0,0.0,84,0.00,SCT,SCT,0.00,WeatherDisplay:10.37,2013-06-23 09:11:00,
2013-06-23 05:16:00,67.4,62.4,0.00,West,263,0.0,0.0,84,0.00,SCT,SCT,0.00,WeatherDisplay:10.37,2013-06-23 09:16:00,
2013-06-23 05:21:00,67.4,62.4,0.00,West,263,0.0,0.0,84,0.00,SCT,SCT,0.00,WeatherDisplay:10.37,2013-06-23 09:21:00,
2013-06-23 05:26:00,67.4,62.4,0.00,West,263,0.0,0.0,84,0.00,SCT,SCT,0.00,WeatherDisplay:10.37,2013-06-23 09:26:00,
2013-06-23 05:31:00,67.4,62.4,0.00,West,263,0.0,0.0,84,0.00,SCT,SCT,0.00,WeatherDisplay:10.37,2013-06-23 09:31:00,
2013-06-23 05:36:00,67.3,62.3,0.00,West,263,0.0,0.0,84,0.00,SCT,SCT,0.00,WeatherDisplay:10.37,2013-06-23 09:36:00,
2013-06-23 05:41:00,67.2,62.5,0.00,West,263,0.0,0.0,85,0.00,SCT,SCT,0.00,WeatherDisplay:10.37,2013-06-23 09:41:00,
2013-06-23 05:47:00,67.2,62.5,0.00,West,263,0.0,0.0,85,0.00,SCT,SCT,0.00,WeatherDisplay:10.37,2013-06-23 09:47:00,
2013-06-23 05:52:00,67.1,62.4,0.00,West,263,0.0,0.0,85,0.00,SCT,SCT,0.00,WeatherDisplay:10.37,2013-06-23 09:52:00,
2013-06-23 05:57:00,67.1,62.4,0.00,WSW,239,2.4,2.4,85,0.00,SCT,SCT,0.00,WeatherDisplay:10.37,2013-06-23 09:57:00,
2013-06-23 06:02:00,67.1,62.8,0.00,West,266,0.0,0.0,86,0.00,BKN,BKN,0.00,WeatherDisplay:10.37,2013-06-23 10:02:00,
2013-06-23 06:07:00,67.1,62.8,0.00,SSW,196,2.3,2.3,86,0.00,BKN,BKN,0.00,WeatherDisplay:10.37,2013-06-23 10:07:00,
2013-06-23 06:12:00,67.1,63.1,0.00,SW,224,0.0,0.0,87,0.00,BKN,BKN,0.00,WeatherDisplay:10.37,2013-06-23 10:12:00,
2013-06-23 06:18:00,67.1,63.1,0.00,SSE,147,2.3,0.0,87,0.00,BKN,BKN,0.00,WeatherDisplay:10.37,2013-06-23 10:18:00,
2013-06-23 06:23:00,67.1,63.1,0.00,SSW,213,1.1,1.1,87,0.00,BKN,BKN,0.00,WeatherDisplay:10.37,2013-06-23 10:23:00,
2013-06-23 06:28:00,67.2,63.2,0.00,WSW,241,1.2,1.2,87,0.00,BKN,BKN,0.00,WeatherDisplay:10.37,2013-06-23 10:28:00,
2013-06-23 06:33:00,67.3,63.3,0.00,West,264,2.3,2.3,87,0.00,BKN,BKN,0.00,WeatherDisplay:10.37,2013-06-23 10:33:00,
2013-06-23 06:38:00,67.3,63.3,0.00,SSW,202,3.5,3.5,87,0.00,BKN,BKN,0.00,WeatherDisplay:10.37,2013-06-23 10:38:00,
2013-06-23 06:43:00,67.3,63.6,0.00,SSW,192,0.0,0.0,88,0.00,BKN,BKN,0.00,WeatherDisplay:10.37,2013-06-23 10:43:00,
2013-06-23 06:48:00,67.4,63.7,0.00,West,267,3.5,3.5,88,0.00,BKN,BKN,0.00,WeatherDisplay:10.37,2013-06-23 10:48:00,
2013-06-23 06:53:00,67.5,63.8,0.00,SSE,148,0.0,0.0,88,0.00,BKN,BKN,0.00,WeatherDisplay:10.37,2013-06-23 10:53:00,
2013-06-23 06:58:00,67.7,64.0,0.00,SSW,200,2.3,2.3,88,0.00,BKN,BKN,0.00,WeatherDisplay:10.37,2013-06-23 10:58:00,
2013-06-23 07:04:00,67.7,64.3,0.00,WSW,237,3.5,3.5,89,0.00,BKN,BKN,0.00,WeatherDisplay:10.37,2013-06-23 11:04:00,
2013-06-23 07:09:00,67.9,64.5,0.00,ENE,66,3.5,3.5,89,0.00,BKN,BKN,0.00,WeatherDisplay:10.37,2013-06-23 11:09:00,
2013-06-23 07:14:00,68.0,64.6,0.00,WSW,253,2.4,2.4,89,0.00,BKN,BKN,0.00,WeatherDisplay:10.37,2013-06-23 11:14:00,
2013-06-23 07:19:00,68.1,64.7,0.00,West,263,4.6,4.6,89,0.00,BKN,BKN,0.00,WeatherDisplay:10.37,2013-06-23 11:19:00,
2013-06-23 07:24:00,68.1,65.1,0.00,West,274,2.3,2.3,90,0.00,BKN,BKN,0.00,WeatherDisplay:10.37,2013-06-23 11:24:00,
2013-06-23 07:29:00,68.2,65.2,0.00,WSW,244,5.1,5.1,90,0.00,BKN,BKN,0.00,WeatherDisplay:10.37,2013-06-23 11:29:00,
2013-06-23 07:34:00,68.2,65.2,0.00,SSW,205,2.3,2.3,90,0.00,BKN,BKN,0.00,WeatherDisplay:10.37,2013-06-23 11:34:00,
2013-06-23 07:39:00,68.4,65.4,0.00,East,79,3.5,3.5,90,0.00,BKN,BKN,0.00,WeatherDisplay:10.37,2013-06-23 11:39:00,
2013-06-23 07:45:00,68.5,65.4,0.00,WSW,240,3.7,3.7,90,0.00,BKN,BKN,0.00,WeatherDisplay:10.37,2013-06-23 11:45:00,
2013-06-23 07:50:00,68.6,65.9,0.00,WSW,253,3.5,3.5,91,0.00,BKN,BKN,0.00,WeatherDisplay:10.37,2013-06-23 11:50:00,
2013-06-23 07:55:00,68.8,66.1,0.00,WSW,240,4.2,4.2,91,0.00,BKN,BKN,0.00,WeatherDisplay:10.37,2013-06-23 11:55:00,
2013-06-23 08:00:00,69.0,66.3,0.00,SSW,213,3.0,7.0,91,0.00,BKN,BKN,0.00,WeatherDisplay:10.37,2013-06-23 12:00:00,
2013-06-23 08:05:00,69.3,66.9,0.00,SW,234,6.9,6.9,92,0.00,CLR,CLR,0.00,WeatherDisplay:10.37,2013-06-23 12:05:00,
2013-06-23 08:10:00,69.4,67.0,0.00,South,182,2.3,2.3,92,0.00,CLR,CLR,0.00,WeatherDisplay:10.37,2013-06-23 12:10:00,
2013-06-23 08:15:00,69.6,67.2,0.00,SSW,192,4.6,4.6,92,0.00,CLR,CLR,0.00,WeatherDisplay:10.37,2013-06-23 12:15:00,
2013-06-23 08:21:00,69.8,67.4,0.00,WSW,246,4.6,4.6,92,0.00,CLR,CLR,0.00,WeatherDisplay:10.37,2013-06-23 12:21:00,
2013-06-23 08:26:00,70.0,67.6,0.00,WSW,244,4.6,4.6,92,0.00,CLR,CLR,0.00,WeatherDisplay:10.37,2013-06-23 12:26:00,
2013-06-23 08:31:00,70.1,67.7,0.00,WSW,247,2.3,2.3,92,0.00,CLR,CLR,0.00,WeatherDisplay:10.37,2013-06-23 12:31:00,
2013-06-23 08:36:00,70.3,67.9,0.00,NW,318,2.3,2.3,92,0.00,CLR,CLR,0.00,WeatherDisplay:10.37,2013-06-23 12:36:00,
2013-06-23 08:41:00,70.5,68.1,0.00,SW,217,5.8,5.8,92,0.00,CLR,CLR,0.00,WeatherDisplay:10.37,2013-06-23 12:41:00,
2013-06-23 08:46:00,70.6,68.2,0.00,WSW,246,6.9,6.9,92,0.00,CLR,CLR,0.00,WeatherDisplay:10.37,2013-06-23 12:46:00,
2013-06-23 08:51:00,70.8,68.4,0.00,West,271,5.8,5.8,92,0.00,CLR,CLR,0.00,WeatherDisplay:10.37,2013-06-23 12:51:00,
2013-06-23 08:57:00,71.1,68.7,0.00,West,274,4.6,4.6,92,0.00,CLR,CLR,0.00,WeatherDisplay:10.37,2013-06-23 12:57:00,
2013-06-23 09:02:00,71.3,68.5,0.00,SW,229,5.8,5.8,91,0.00,CLR,CLR,0.00,WeatherDisplay:10.37,2013-06-23 13:02:00,
2013-06-23 09:07:00,71.6,68.8,0.00,WSW,239,5.8,5.8,91,0.00,CLR,CLR,0.00,WeatherDisplay:10.37,2013-06-23 13:07:00,
2013-06-23 09:12:00,71.8,68.7,0.00,WNW,291,4.6,4.6,90,0.00,CLR,CLR,0.00,WeatherDisplay:10.37,2013-06-23 13:12:00,
2013-06-23 09:17:00,72.1,69.0,0.00,SW,220,5.8,5.8,90,0.00,CLR,CLR,0.00,WeatherDisplay:10.37,2013-06-23 13:17:00,
2013-06-23 09:22:00,72.4,69.3,0.00,SW,224,1.9,1.9,90,0.00,CLR,CLR,0.00,WeatherDisplay:10.37,2013-06-23 13:22:00,
2013-06-23 09:27:00,72.7,69.3,0.00,West,260,5.8,5.8,89,0.00,CLR,CLR,0.00,WeatherDisplay:10.37,2013-06-23 13:27:00,
2013-06-23 09:32:00,73.0,69.6,0.00,SSW,213,4.6,4.6,89,0.00,CLR,CLR,0.00,WeatherDisplay:10.37,2013-06-23 13:32:00,
2013-06-23 09:38:00,73.4,70.0,0.00,East,83,5.8,5.8,89,0.00,CLR,CLR,0.00,WeatherDisplay:10.37,2013-06-23 13:38:00,
2013-06-23 09:43:00,73.6,69.8,0.00,WSW,246,6.9,6.9,88,0.00,CLR,CLR,0.00,WeatherDisplay:10.37,2013-06-23 13:43:00,
2013-06-23 09:48:00,74.0,70.2,0.00,West,261,5.8,5.8,88,0.00,CLR,CLR,0.00,WeatherDisplay:10.37,2013-06-23 13:48:00,
2013-06-23 09:53:00,74.3,70.2,0.00,WSW,248,5.8,5.8,87,0.00,CLR,CLR,0.00,WeatherDisplay:10.37,2013-06-23 13:53:00,
2013-06-23 09:59:00,74.6,70.5,0.00,South,179,2.3,2.3,87,0.00,CLR,CLR,0.00,WeatherDisplay:10.37,2013-06-23 13:59:00,
2013-06-23 10:04:00,74.8,70.7,0.00,WSW,247,2.3,2.3,87,0.00,FEW,FEW,0.00,WeatherDisplay:10.37,2013-06-23 14:04:00,
2013-06-23 10:09:00,75.0,70.9,0.00,WSW,243,2.4,2.4,87,0.00,FEW,FEW,0.00,WeatherDisplay:10.37,2013-06-23 14:09:00,
2013-06-23 10:14:00,75.2,71.1,0.00,West,265,3.5,3.5,87,0.00,FEW,FEW,0.00,WeatherDisplay:10.37,2013-06-23 14:14:00,
2013-06-23 10:19:00,75.4,71.3,0.00,WSW,257,3.2,3.2,87,0.00,FEW,FEW,0.00,WeatherDisplay:10.37,2013-06-23 14:19:00,
2013-06-23 10:24:00,75.7,71.2,0.00,SSE,167,4.6,4.6,86,0.00,FEW,FEW,0.00,WeatherDisplay:10.37,2013-06-23 14:24:00,
2013-06-23 10:29:00,75.9,71.4,0.00,WSW,243,7.1,7.1,86,0.00,FEW,FEW,0.00,WeatherDisplay:10.37,2013-06-23 14:29:00,
2013-06-23 10:34:00,76.2,71.7,0.00,SSW,198,3.5,3.5,86,0.00,FEW,FEW,0.00,WeatherDisplay:10.37,2013-06-23 14:34:00,
2013-06-23 10:39:00,76.5,72.0,0.00,WNW,302,3.5,3.5,86,0.00,FEW,FEW,0.00,WeatherDisplay:10.37,2013-06-23 14:39:00,
2013-06-23 10:45:00,76.9,72.0,0.00,NE,42,5.8,5.8,85,0.00,FEW,FEW,0.00,WeatherDisplay:10.37,2013-06-23 14:45:00,
2013-06-23 10:50:00,77.3,72.1,0.00,WSW,237,4.6,4.6,84,0.00,FEW,FEW,0.00,WeatherDisplay:10.37,2013-06-23 14:50:00,
2013-06-23 10:55:00,77.8,72.6,0.00,WSW,239,9.2,9.2,84,0.00,FEW,FEW,0.00,WeatherDisplay:10.37,2013-06-23 14:55:00,
2013-06-23 11:00:00,78.0,72.4,0.00,NE,48,6.9,6.9,83,0.00,FEW,FEW,0.00,WeatherDisplay:10.37,2013-06-23 15:00:00,
2013-06-23 11:05:00,78.3,72.7,0.00,NE,42,0.0,0.0,83,0.00,CLR,CLR,0.00,WeatherDisplay:10.37,2013-06-23 15:05:00,
2013-06-23 11:10:00,78.8,72.8,0.00,South,184,4.6,4.6,82,0.00,CLR,CLR,0.00,WeatherDisplay:10.37,2013-06-23 15:10:00,
2013-06-23 11:15:00,79.2,73.2,0.00,SSW,213,4.6,4.6,82,0.00,CLR,CLR,0.00,WeatherDisplay:10.37,2013-06-23 15:15:00,
2013-06-23 11:21:00,79.7,73.3,0.00,West,261,6.1,6.1,81,0.00,CLR,CLR,0.00,WeatherDisplay:10.37,2013-06-23 15:21:00,
2013-06-23 11:26:00,79.9,73.5,0.00,North,6,0.0,0.0,81,0.00,CLR,CLR,0.00,WeatherDisplay:10.37,2013-06-23 15:26:00,
2013-06-23 11:31:00,80.1,73.4,0.00,WSW,244,6.9,6.9,80,0.00,CLR,CLR,0.00,WeatherDisplay:10.37,2013-06-23 15:31:00,
2013-06-23 11:36:00,80.3,73.6,0.00,West,281,6.9,6.9,80,0.00,CLR,CLR,0.00,WeatherDisplay:10.37,2013-06-23 15:36:00,
2013-06-23 11:41:00,80.5,73.8,0.00,SW,232,7.1,7.1,80,0.00,CLR,CLR,0.00,WeatherDisplay:10.37,2013-06-23 15:41:00,
2013-06-23 11:46:00,80.4,73.7,0.00,SSW,205,2.3,2.3,80,0.00,CLR,CLR,0.00,WeatherDisplay:10.37,2013-06-23 15:46:00,
2013-06-23 11:51:00,80.6,73.5,0.00,WSW,248,6.4,6.4,79,0.00,CLR,CLR,0.00,WeatherDisplay:10.37,2013-06-23 15:51:00,
2013-06-23 11:57:00,80.9,74.1,0.00,SSW,205,0.0,0.0,80,0.00,CLR,CLR,0.00,WeatherDisplay:10.37,2013-06-23 15:57:00,
2013-06-23 12:02:00,81.3,74.2,0.00,SW,232,4.8,4.8,79,0.00,CLR,CLR,0.00,WeatherDisplay:10.37,2013-06-23 16:02:00,
2013-06-23 12:07:00,81.4,74.3,0.00,West,261,2.3,2.3,79,0.00,CLR,CLR,0.00,WeatherDisplay:10.37,2013-06-23 16:07:00,
2013-06-23 12:12:00,81.8,74.3,0.00,NNW,340,6.9,6.9,78,0.00,CLR,CLR,0.00,WeatherDisplay:10.37,2013-06-23 16:12:00,
2013-06-23 12:17:00,81.9,74.4,0.00,NE,35,1.2,1.2,78,0.00,CLR,CLR,0.00,WeatherDisplay:10.37,2013-06-23 16:17:00,
2013-06-23 12:22:00,82.3,74.4,0.00,SW,233,6.8,6.8,77,0.00,CLR,CLR,0.00,WeatherDisplay:10.37,2013-06-23 16:22:00,
2013-06-23 12:27:00,82.5,74.6,0.00,WSW,237,3.5,3.5,77,0.00,CLR,CLR,0.00,WeatherDisplay:10.37,2013-06-23 16:27:00,
2013-06-23 12:33:00,82.6,74.7,0.00,WSW,241,1.2,1.2,77,0.00,CLR,CLR,0.00,WeatherDisplay:10.37,2013-06-23 16:33:00,
2013-06-23 12:38:00,82.7,74.4,0.00,East,83,6.9,6.9,76,0.00,CLR,CLR,0.00,WeatherDisplay:10.37,2013-06-23 16:38:00,
2013-06-23 12:43:00,82.8,74.5,0.00,WSW,251,5.8,5.8,76,0.00,CLR,CLR,0.00,WeatherDisplay:10.37,2013-06-23 16:43:00,
2013-06-23 12:48:00,82.9,74.6,0.00,West,274,1.2,1.2,76,0.00,CLR,CLR,0.00,WeatherDisplay:10.37,2013-06-23 16:48:00,
2013-06-23 12:53:00,83.1,74.4,0.00,WSW,237,4.8,5.4,75,0.00,CLR,CLR,0.00,WeatherDisplay:10.37,2013-06-23 16:53:00,
2013-06-23 12:57:00,83.1,74.7,0.00,SSE,151,5.8,5.8,76,0.00,CLR,CLR,0.00,WeatherDisplay:10.37,2013-06-23 16:57:00,
2013-06-23 12:58:00,83.1,74.7,0.00,WSW,244,5.8,5.8,76,0.00,CLR,CLR,0.00,WeatherDisplay:10.37,2013-06-23 16:58:00,
2013-06-23 12:59:00,83.1,74.7,0.00,SW,217,5.8,5.8,76,0.00,CLR,CLR,0.00,WeatherDisplay:10.37,2013-06-23 16:59:00,
2013-06-23 13:00:00,83.1,74.7,0.00,SW,215,2.2,0.0,76,0.00,CLR,CLR,0.00,WeatherDisplay:10.37,2013-06-23 17:00:00,
2013-06-23 13:04:00,83.1,75.1,0.00,SW,227,8.1,8.1,77,0.00,CLR,CLR,0.00,WeatherDisplay:10.37,2013-06-23 17:04:00,
2013-06-23 13:09:00,83.3,75.3,0.00,WNW,295,5.8,5.8,77,0.00,CLR,CLR,0.00,WeatherDisplay:10.37,2013-06-23 17:09:00,
2013-06-23 13:15:00,83.4,75.4,0.00,South,184,6.2,6.2,77,0.00,CLR,CLR,0.00,WeatherDisplay:10.37,2013-06-23 17:15:00,
2013-06-23 13:20:00,83.4,75.0,0.00,WSW,247,6.9,6.9,76,0.00,CLR,CLR,0.00,WeatherDisplay:10.37,2013-06-23 17:20:00,
2013-06-23 13:25:00,83.4,75.4,0.00,SE,136,5.8,5.8,77,0.00,CLR,CLR,0.00,WeatherDisplay:10.37,2013-06-23 17:25:00,
2013-06-23 13:30:00,83.5,75.5,0.00,WSW,240,5.8,5.8,77,0.00,CLR,CLR,0.00,WeatherDisplay:10.37,2013-06-23 17:30:00,
2013-06-23 13:36:00,83.5,75.5,0.00,West,277,5.8,5.8,77,0.00,CLR,CLR,0.00,WeatherDisplay:10.37,2013-06-23 17:36:00,
2013-06-23 13:41:00,83.5,75.5,0.00,WNW,299,4.6,4.6,77,0.00,CLR,CLR,0.00,WeatherDisplay:10.37,2013-06-23 17:41:00,
2013-06-23 13:46:00,83.5,75.1,0.00,SSE,162,8.1,8.1,76,0.00,CLR,CLR,0.00,WeatherDisplay:10.37,2013-06-23 17:46:00,
2013-06-23 13:51:00,83.7,75.3,0.00,WSW,247,9.2,9.2,76,0.00,CLR,CLR,0.00,WeatherDisplay:10.37,2013-06-23 17:51:00,
2013-06-23 13:56:00,83.7,75.3,0.00,WSW,240,2.4,2.4,76,0.00,CLR,CLR,0.00,WeatherDisplay:10.37,2013-06-23 17:56:00,
2013-06-23 14:02:00,83.9,75.5,0.00,WNW,282,3.5,3.5,76,0.00,CLR,CLR,0.00,WeatherDisplay:10.37,2013-06-23 18:02:00,
2013-06-23 14:07:00,84.0,75.2,0.00,ESE,117,10.4,10.4,75,0.00,CLR,CLR,0.00,WeatherDisplay:10.37,2013-06-23 18:07:00,
2013-06-23 14:12:00,83.9,75.1,0.00,SSE,147,9.2,9.2,75,0.00,CLR,CLR,0.00,WeatherDisplay:10.37,2013-06-23 18:12:00,
2013-06-23 14:17:00,84.1,75.3,0.00,SW,215,4.6,4.6,75,0.00,CLR,CLR,0.00,WeatherDisplay:10.37,2013-06-23 18:17:00,
2013-06-23 14:22:00,84.3,75.9,0.00,WSW,254,4.6,4.6,76,0.00,CLR,CLR,0.00,WeatherDisplay:10.37,2013-06-23 18:22:00,
2013-06-23 14:27:00,84.4,75.2,0.00,SW,234,9.2,9.2,74,0.00,CLR,CLR,0.00,WeatherDisplay:10.37,2013-06-23 18:27:00,
2013-06-23 14:32:00,84.4,74.8,0.00,WSW,247,7.5,7.5,73,0.00,CLR,CLR,0.00,WeatherDisplay:10.37,2013-06-23 18:32:00,
2013-06-23 14:38:00,84.6,75.0,0.00,South,178,5.8,5.8,73,0.00,CLR,CLR,0.00,WeatherDisplay:10.37,2013-06-23 18:38:00,
2013-06-23 14:43:00,84.7,75.1,0.00,WNW,285,10.4,10.4,73,0.00,CLR,CLR,0.00,WeatherDisplay:10.37,2013-06-23 18:43:00,
2013-06-23 14:48:00,84.9,74.9,0.00,SSW,195,2.3,2.3,72,0.00,CLR,CLR,0.00,WeatherDisplay:10.37,2013-06-23 18:48:00,
2013-06-23 14:53:00,85.1,75.1,0.00,WSW,237,6.9,6.9,72,0.00,CLR,CLR,0.00,WeatherDisplay:10.37,2013-06-23 18:53:00,
2013-06-23 14:58:00,85.3,75.2,0.00,SSW,202,5.8,5.8,72,0.00,CLR,CLR,0.00,WeatherDisplay:10.37,2013-06-23 18:58:00,
2013-06-23 15:03:00,85.4,75.3,0.00,WSW,257,3.5,3.5,72,0.00,CLR,CLR,0.00,WeatherDisplay:10.37,2013-06-23 19:03:00,
2013-06-23 15:08:00,85.6,75.5,0.00,SW,219,2.2,2.2,72,0.00,CLR,CLR,0.00,WeatherDisplay:10.37,2013-06-23 19:08:00,
2013-06-23 15:13:00,85.7,75.6,0.00,SSW,213,1.2,1.4,72,0.00,CLR,CLR,0.00,WeatherDisplay:10.37,2013-06-23 19:13:00,
2013-06-23 15:19:00,85.7,75.2,0.00,SW,224,6.9,6.9,71,0.00,CLR,CLR,0.00,WeatherDisplay:10.37,2013-06-23 19:19:00,
2013-06-23 15:24:00,85.8,75.3,0.00,SW,217,4.6,4.6,71,0.00,CLR,CLR,0.00,WeatherDisplay:10.37,2013-06-23 19:24:00,
2013-06-23 15:29:00,85.8,75.3,0.00,North,10,4.6,4.6,71,0.00,CLR,CLR,0.00,WeatherDisplay:10.37,2013-06-23 19:29:00,
2013-06-23 15:34:00,85.9,75.4,0.00,West,267,9.2,9.2,71,0.00,CLR,CLR,0.00,WeatherDisplay:10.37,2013-06-23 19:34:00,
2013-06-23 15:39:00,85.9,75.0,0.00,NNW,337,5.8,5.8,70,0.00,CLR,CLR,0.00,WeatherDisplay:10.37,2013-06-23 19:39:00,
2013-06-23 15:44:00,86.0,75.1,0.00,WNW,302,6.9,6.9,70,0.00,CLR,CLR,0.00,WeatherDisplay:10.37,2013-06-23 19:44:00,
2013-06-23 15:49:00,86.0,74.6,0.00,WNW,294,4.6,4.6,69,0.00,CLR,CLR,0.00,WeatherDisplay:10.37,2013-06-23 19:49:00,
2013-06-23 15:55:00,86.1,74.7,0.00,WSW,256,5.8,5.8,69,0.00,CLR,CLR,0.00,WeatherDisplay:10.37,2013-06-23 19:55:00,
2013-06-23 16:00:00,86.1,74.7,0.00,East,96,4.6,4.6,69,0.00,CLR,CLR,0.00,WeatherDisplay:10.37,2013-06-23 20:00:00,
2013-06-23 16:05:00,86.1,74.3,0.00,SW,226,6.9,6.9,68,0.00,CLR,CLR,0.00,WeatherDisplay:10.37,2013-06-23 20:05:00,
2013-06-23 16:10:00,86.2,74.4,0.00,West,265,6.9,6.9,68,0.00,CLR,CLR,0.00,WeatherDisplay:10.37,2013-06-23 20:10:00,
2013-06-23 16:15:00,86.4,74.6,0.00,West,268,4.6,4.6,68,0.00,CLR,CLR,0.00,WeatherDisplay:10.37,2013-06-23 20:15:00,
2013-06-23 16:21:00,86.5,74.7,0.00,NW,311,9.2,9.2,68,0.00,CLR,CLR,0.00,WeatherDisplay:10.37,2013-06-23 20:21:00,
2013-06-23 16:26:00,86.6,73.9,0.00,WSW,254,9.2,9.2,66,0.00,CLR,CLR,0.00,WeatherDisplay:10.37,2013-06-23 20:26:00,
2013-06-23 16:31:00,86.5,73.8,0.00,NW,325,6.9,6.9,66,0.00,CLR,CLR,0.00,WeatherDisplay:10.37,2013-06-23 20:31:00,
2013-06-23 16:36:00,86.7,74.0,0.00,WSW,244,4.7,4.7,66,0.00,CLR,CLR,0.00,WeatherDisplay:10.37,2013-06-23 20:36:00,
2013-06-23 16:41:00,86.7,74.0,0.00,West,272,4.6,4.6,66,0.00,CLR,CLR,0.00,WeatherDisplay:10.37,2013-06-23 20:41:00,
2013-06-23 16:46:00,86.7,74.0,0.00,SSE,152,2.3,2.3,66,0.00,CLR,CLR,0.00,WeatherDisplay:10.37,2013-06-23 20:46:00,
2013-06-23 16:52:00,86.7,74.0,0.00,North,10,2.3,2.3,66,0.00,CLR,CLR,0.00,WeatherDisplay:10.37,2013-06-23 20:52:00,
2013-06-23 16:57:00,86.6,73.9,0.00,South,172,5.8,5.8,66,0.00,CLR,CLR,0.00,WeatherDisplay:10.37,2013-06-23 20:57:00,
2013-06-23 17:02:00,86.5,73.8,0.00,SSE,160,2.8,3.8,66,0.00,CLR,CLR,0.00,WeatherDisplay:10.37,2013-06-23 21:02:00,
2013-06-23 17:07:00,86.5,73.3,0.00,WSW,251,5.8,5.8,65,0.00,CLR,CLR,0.00,WeatherDisplay:10.37,2013-06-23 21:07:00,
2013-06-23 17:12:00,86.5,73.8,0.00,NNE,13,4.6,4.6,66,0.00,CLR,CLR,0.00,WeatherDisplay:10.37,2013-06-23 21:12:00,
2013-06-23 17:17:00,86.5,73.8,0.00,SE,126,9.2,9.2,66,0.00,CLR,CLR,0.00,WeatherDisplay:10.37,2013-06-23 21:17:00,
2013-06-23 17:22:00,86.3,73.6,0.00,SSW,202,4.6,4.6,66,0.00,CLR,CLR,0.00,WeatherDisplay:10.37,2013-06-23 21:22:00,
2013-06-23 17:27:00,86.2,74.0,0.00,NW,306,5.8,5.8,67,0.00,CLR,CLR,0.00,WeatherDisplay:10.37,2013-06-23 21:27:00,
2013-06-23 17:33:00,86.3,74.0,0.00,WSW,243,5.8,5.8,67,0.00,CLR,CLR,0.00,WeatherDisplay:10.37,2013-06-23 21:33:00,
2013-06-23 17:38:00,86.4,74.1,0.00,SSW,205,2.3,2.3,67,0.00,CLR,CLR,0.00,WeatherDisplay:10.37,2013-06-23 21:38:00,
2013-06-23 17:43:00,86.4,74.1,0.00,West,281,5.8,5.8,67,0.00,CLR,CLR,0.00,WeatherDisplay:10.37,2013-06-23 21:43:00,
2013-06-23 17:48:00,86.4,74.6,0.00,SSW,203,4.6,4.6,68,0.00,CLR,CLR,0.00,WeatherDisplay:10.37,2013-06-23 21:48:00,
2013-06-23 17:53:00,86.5,74.2,0.00,SE,138,3.5,0.0,67,0.00,CLR,CLR,0.00,WeatherDisplay:10.37,2013-06-23 21:53:00,
2013-06-23 17:59:00,86.6,74.3,0.00,NNE,16,5.8,5.8,67,0.00,CLR,CLR,0.00,WeatherDisplay:10.37,2013-06-23 21:59:00,
2013-06-23 18:04:00,86.7,74.4,0.00,NE,41,4.6,4.6,67,0.00,CLR,CLR,0.00,WeatherDisplay:10.37,2013-06-23 22:04:00,
2013-06-23 18:09:00,86.7,74.9,0.00,WSW,241,4.6,4.6,68,0.00,CLR,CLR,0.00,WeatherDisplay:10.37,2013-06-23 22:09:00,
2013-06-23 18:14:00,86.5,74.7,0.00,SW,216,3.7,3.7,68,0.00,CLR,CLR,0.00,WeatherDisplay:10.37,2013-06-23 22:14:00,
2013-06-23 18:20:00,86.5,74.7,0.00,WSW,254,4.6,4.6,68,0.00,CLR,CLR,0.00,WeatherDisplay:10.37,2013-06-23 22:20:00,
2013-06-23 18:25:00,86.3,74.5,0.00,West,275,8.1,8.1,68,0.00,CLR,CLR,0.00,WeatherDisplay:10.37,2013-06-23 22:25:00,
2013-06-23 18:30:00,86.2,74.4,0.00,WSW,247,4.6,4.6,68,0.00,CLR,CLR,0.00,WeatherDisplay:10.37,2013-06-23 22:30:00,
2013-06-23 18:35:00,86.2,74.4,0.00,WSW,253,7.8,7.8,68,0.00,CLR,CLR,0.00,WeatherDisplay:10.37,2013-06-23 22:35:00,
2013-06-23 18:40:00,86.0,74.2,0.00,WSW,244,7.1,7.1,68,0.00,CLR,CLR,0.00,WeatherDisplay:10.37,2013-06-23 22:40:00,
2013-06-23 18:45:00,85.9,74.5,0.00,SW,229,2.3,2.3,69,0.00,CLR,CLR,0.00,WeatherDisplay:10.37,2013-06-23 22:45:00,
2013-06-23 18:51:00,85.7,74.4,0.00,SSW,199,5.8,5.8,69,0.00,CLR,CLR,0.00,WeatherDisplay:10.37,2013-06-23 22:51:00,
2013-06-23 18:56:00,85.6,74.7,0.00,ENE,64,3.5,3.5,70,0.00,CLR,CLR,0.00,WeatherDisplay:10.37,2013-06-23 22:56:00,
2013-06-23 19:01:00,85.5,74.6,0.00,South,188,4.6,4.6,70,0.00,CLR,CLR,0.00,WeatherDisplay:10.37,2013-06-23 23:01:00,
2013-06-23 19:06:00,85.4,74.5,0.00,SE,127,2.9,2.9,70,0.00,CLR,CLR,0.00,WeatherDisplay:10.37,2013-06-23 23:06:00,
2013-06-23 19:12:00,85.2,74.7,0.00,SE,124,0.0,0.0,71,0.00,CLR,CLR,0.00,WeatherDisplay:10.37,2013-06-23 23:12:00,
2013-06-23 19:17:00,85.0,74.5,0.00,West,268,3.5,3.5,71,0.00,CLR,CLR,0.00,WeatherDisplay:10.37,2013-06-23 23:17:00,
2013-06-23 19:22:00,84.7,74.7,0.00,West,265,2.3,2.3,72,0.00,CLR,CLR,0.00,WeatherDisplay:10.37,2013-06-23 23:22:00,
2013-06-23 19:27:00,84.4,74.4,0.00,West,272,4.6,4.6,72,0.00,CLR,CLR,0.00,WeatherDisplay:10.37,2013-06-23 23:27:00,
2013-06-23 19:32:00,84.3,74.7,0.00,SW,220,4.6,4.6,73,0.00,CLR,CLR,0.00,WeatherDisplay:10.37,2013-06-23 23:32:00,
2013-06-23 19:37:00,84.2,74.6,0.00,SSW,203,4.6,4.6,73,0.00,CLR,CLR,0.00,WeatherDisplay:10.37,2013-06-23 23:37:00,
2013-06-23 19:42:00,83.9,74.7,0.00,SW,227,2.3,2.3,74,0.00,CLR,CLR,0.00,WeatherDisplay:10.37,2013-06-23 23:42:00,
2013-06-23 19:48:00,83.7,74.5,0.00,NNE,14,5.8,5.8,74,0.00,CLR,CLR,0.00,WeatherDisplay:10.37,2013-06-23 23:48:00,
2013-06-23 19:53:00,83.4,74.2,0.00,ESE,116,1.2,1.2,74,0.00,CLR,CLR,0.00,WeatherDisplay:10.37,2013-06-23 23:53:00,
2013-06-23 19:58:00,83.3,74.5,0.00,ENE,71,4.6,4.6,75,0.00,CLR,CLR,0.00,WeatherDisplay:10.37,2013-06-23 23:58:00,
2013-06-23 20:03:00,83.1,74.4,0.00,South,169,3.5,3.5,75,0.00,CLR,CLR,0.00,WeatherDisplay:10.37,2013-06-24 00:03:00,
2013-06-23 20:08:00,82.9,74.6,0.00,WNW,285,1.2,0.0,76,0.00,CLR,CLR,0.00,WeatherDisplay:10.37,2013-06-24 00:08:00,
2013-06-23 20:13:00,82.7,74.4,0.00,SW,220,0.2,0.6,76,0.00,CLR,CLR,0.00,WeatherDisplay:10.37,2013-06-24 00:13:00,
2013-06-23 20:18:00,82.5,74.2,0.00,West,265,5.8,5.8,76,0.00,CLR,CLR,0.00,WeatherDisplay:10.37,2013-06-24 00:18:00,
2013-06-23 20:24:00,82.3,74.0,0.00,West,272,3.5,3.5,76,0.00,CLR,CLR,0.00,WeatherDisplay:10.37,2013-06-24 00:24:00,
2013-06-23 20:29:00,82.0,74.1,0.00,NW,320,3.5,3.5,77,0.00,CLR,CLR,0.00,WeatherDisplay:10.37,2013-06-24 00:29:00,
2013-06-23 20:34:00,81.8,73.9,0.00,West,274,1.2,1.2,77,0.00,CLR,CLR,0.00,WeatherDisplay:10.37,2013-06-24 00:34:00,
2013-06-23 20:39:00,81.7,73.8,0.00,SE,124,3.5,3.5,77,0.00,CLR,CLR,0.00,WeatherDisplay:10.37,2013-06-24 00:39:00,
2013-06-23 20:44:00,81.3,73.8,0.00,SW,229,1.2,1.2,78,0.00,CLR,CLR,0.00,WeatherDisplay:10.37,2013-06-24 00:44:00,
2013-06-23 20:49:00,81.4,73.9,0.00,ENE,66,2.3,2.3,78,0.00,CLR,CLR,0.00,WeatherDisplay:10.37,2013-06-24 00:49:00,
2013-06-23 20:54:00,81.3,73.8,0.00,WSW,256,3.5,3.5,78,0.00,CLR,CLR,0.00,WeatherDisplay:10.37,2013-06-24 00:54:00,
2013-06-23 21:00:00,80.9,73.8,0.00,East,93,3.5,0.0,79,0.00,CLR,CLR,0.00,WeatherDisplay:10.37,2013-06-24 01:00:00,
2013-06-23 21:05:00,80.8,73.7,0.00,ESE,116,0.0,0.1,79,0.00,CLR,CLR,0.00,WeatherDisplay:10.37,2013-06-24 01:05:00,
2013-06-23 21:10:00,80.5,73.4,0.00,South,185,5.8,5.8,79,0.00,CLR,CLR,0.00,WeatherDisplay:10.37,2013-06-24 01:10:00,
2013-06-23 21:15:00,80.4,73.7,0.00,West,262,1.0,8.0,80,0.00,CLR,CLR,0.00,WeatherDisplay:10.37,2013-06-24 01:15:00,
2013-06-23 21:20:00,80.3,73.6,0.00,SSE,151,2.3,2.3,80,0.00,CLR,CLR,0.00,WeatherDisplay:10.37,2013-06-24 01:20:00,
2013-06-23 21:25:00,80.1,73.4,0.00,West,264,9.2,9.2,80,0.00,CLR,CLR,0.00,WeatherDisplay:10.37,2013-06-24 01:25:00,
2013-06-23 21:30:00,80.0,73.6,0.00,SE,144,3.5,3.5,81,0.00,CLR,CLR,0.00,WeatherDisplay:10.37,2013-06-24 01:30:00,
2013-06-23 21:35:00,79.8,73.4,0.00,NE,45,3.5,3.5,81,0.00,CLR,CLR,0.00,WeatherDisplay:10.37,2013-06-24 01:35:00,
2013-06-23 21:41:00,79.7,73.7,0.00,West,261,5.8,5.8,82,0.00,CLR,CLR,0.00,WeatherDisplay:10.37,2013-06-24 01:41:00,
2013-06-23 21:46:00,79.4,73.4,0.00,West,263,5.0,5.0,82,0.00,CLR,CLR,0.00,WeatherDisplay:10.37,2013-06-24 01:46:00,
2013-06-23 21:51:00,79.3,73.3,0.00,SSW,195,1.2,1.2,82,0.00,CLR,CLR,0.00,WeatherDisplay:10.37,2013-06-24 01:51:00,
2013-06-23 21:56:00,79.3,73.3,0.00,SE,130,5.8,5.8,82,0.00,CLR,CLR,0.00,WeatherDisplay:10.37,2013-06-24 01:56:00,
2013-06-23 22:02:00,79.2,73.2,0.00,West,263,2.3,2.3,82,0.00,CLR,CLR,0.00,WeatherDisplay:10.37,2013-06-24 02:02:00,
2013-06-23 22:07:00,79.1,73.5,0.00,NNW,330,4.6,4.6,83,0.00,CLR,CLR,0.00,WeatherDisplay:10.37,2013-06-24 02:07:00,
2013-06-23 22:12:00,79.0,73.4,0.00,WSW,239,0.0,0.0,83,0.00,CLR,CLR,0.00,WeatherDisplay:10.37,2013-06-24 02:12:00,
2013-06-23 22:17:00,78.9,73.3,0.00,SW,222,6.8,6.8,83,0.00,CLR,CLR,0.00,WeatherDisplay:10.37,2013-06-24 02:17:00,
2013-06-23 22:22:00,78.7,73.5,0.00,North,349,9.2,9.2,84,0.00,CLR,CLR,0.00,WeatherDisplay:10.37,2013-06-24 02:22:00,
2013-06-23 22:27:00,78.4,73.2,0.00,West,270,6.3,6.3,84,0.00,CLR,CLR,0.00,WeatherDisplay:10.37,2013-06-24 02:27:00,
2013-06-23 22:33:00,78.2,73.0,0.00,South,172,5.8,5.8,84,0.00,CLR,CLR,0.00,WeatherDisplay:10.37,2013-06-24 02:33:00,
2013-06-23 22:38:00,78.1,72.9,0.00,North,3,8.1,8.1,84,0.00,CLR,CLR,0.00,WeatherDisplay:10.37,2013-06-24 02:38:00,
2013-06-23 22:43:00,78.0,73.1,0.00,West,270,2.3,2.3,85,0.00,CLR,CLR,0.00,WeatherDisplay:10.37,2013-06-24 02:43:00,
2013-06-23 22:48:00,77.9,73.0,0.00,NE,47,4.6,4.6,85,0.00,CLR,CLR,0.00,WeatherDisplay:10.37,2013-06-24 02:48:00,
2013-06-23 22:53:00,77.9,73.0,0.00,West,260,6.9,6.9,85,0.00,CLR,CLR,0.00,WeatherDisplay:10.37,2013-06-24 02:53:00,
2013-06-23 22:58:00,77.7,72.8,0.00,South,169,4.6,4.6,85,0.00,CLR,CLR,0.00,WeatherDisplay:10.37,2013-06-24 02:58:00,
2013-06-23 23:03:00,77.5,73.0,0.00,West,271,3.5,3.5,86,0.00,CLR,CLR,0.00,WeatherDisplay:10.37,2013-06-24 03:03:00,
2013-06-23 23:08:00,77.4,72.9,0.00,WNW,285,5.8,5.8,86,0.00,CLR,CLR,0.00,WeatherDisplay:10.37,2013-06-24 03:08:00,
2013-06-23 23:14:00,77.3,72.8,0.00,ENE,71,4.6,4.6,86,0.00,CLR,CLR,0.00,WeatherDisplay:10.37,2013-06-24 03:14:00,
2013-06-23 23:19:00,77.2,72.7,0.00,West,260,0.0,0.0,86,0.00,CLR,CLR,0.00,WeatherDisplay:10.37,2013-06-24 03:19:00,
2013-06-23 23:24:00,77.1,72.6,0.00,East,79,6.9,6.9,86,0.00,CLR,CLR,0.00,WeatherDisplay:10.37,2013-06-24 03:24:00,
2013-06-23 23:29:00,77.0,72.8,0.00,WSW,251,5.8,5.8,87,0.00,CLR,CLR,0.00,WeatherDisplay:10.37,2013-06-24 03:29:00,
2013-06-23 23:34:00,76.9,72.7,0.00,WNW,296,0.0,0.0,87,0.00,CLR,CLR,0.00,WeatherDisplay:10.37,2013-06-24 03:34:00,
2013-06-23 23:39:00,76.9,72.4,0.00,WNW,296,1.2,1.2,86,0.00,CLR,CLR,0.00,WeatherDisplay:10.37,2013-06-24 03:39:00,
2013-06-23 23:44:00,76.8,72.6,0.00,WSW,258,4.6,4.6,87,0.00,CLR,CLR,0.00,WeatherDisplay:10.37,2013-06-24 03:44:00,
2013-06-23 23:49:00,76.6,72.4,0.00,NE,56,4.6,4.6,87,0.00,CLR,CLR,0.00,WeatherDisplay:10.37,2013-06-24 03:49:00,
2013-06-23 23:55:00,76.5,72.3,0.00,South,179,6.9,6.9,87,0.00,CLR,CLR,0.00,WeatherDisplay:10.37,2013-06-24 03:55:00,